Time;durP1;ratioP1;P1;durP2;ratioP2;P2;SDS_P1;SDS_P2;PMS_P1;PMS_P2;Temp;Humidity;BMP_temperature;BMP_pressure;BME280_temperature;BME280_humidity;BME280_pressure;Samples;Min_cycle;Max_cycle;Signal;HPM_P1;HPM_P2
2021/12/27 00:00:22;;;;;;;16.52;12.65;;;6.90;99.90;;;;;;6125824;23;20041;-86
2021/12/27 00:02:50;;;;;;;17.55;13.00;;;6.70;99.90;;;;;;6125750;23;20479;-86
2021/12/27 00:05:16;;;;;;;16.88;13.07;;;6.70;99.90;;;;;;6125509;23;20017;-86
2021/12/27 00:07:44;;;;;;;14.23;12.43;;;7.00;99.90;;;;;;6125639;23;20337;-86
2021/12/27 00:10:10;;;;;;;16.00;13.15;;;6.90;99.90;;;;;;6125646;23;20010;-86
2021/12/27 00:12:36;;;;;;;15.82;12.50;;;6.80;99.90;;;;;;6125696;23;20063;-86
2021/12/27 00:15:03;;;;;;;15.32;12.50;;;6.80;99.90;;;;;;6125528;23;20005;-86
2021/12/27 00:17:29;;;;;;;13.77;12.05;;;6.70;99.90;;;;;;6099188;23;20009;-86
2021/12/27 00:19:56;;;;;;;13.65;12.10;;;6.70;99.90;;;;;;6125240;23;20010;-86
2021/12/27 00:22:22;;;;;;;14.60;11.93;;;7.00;99.90;;;;;;6126103;23;20001;-86
2021/12/27 00:24:48;;;;;;;13.45;11.43;;;6.70;99.90;;;;;;6125383;23;20124;-86
2021/12/27 00:27:16;;;;;;;14.63;11.43;;;6.70;99.90;;;;;;6125222;23;20472;-87
2021/12/27 00:29:42;;;;;;;13.50;12.07;;;6.80;99.90;;;;;;6125226;23;19998;-86
2021/12/27 00:32:08;;;;;;;15.48;12.15;;;6.90;99.90;;;;;;6125389;23;20010;-86
2021/12/27 00:34:36;;;;;;;13.27;11.57;;;6.80;99.90;;;;;;6125232;23;20057;-86
2021/12/27 00:37:06;;;;;;;14.07;11.50;;;7.20;99.90;;;;;;6099150;23;20006;-86
2021/12/27 00:39:32;;;;;;;14.98;10.93;;;6.80;99.90;;;;;;6124615;23;20010;-86
2021/12/27 00:41:58;;;;;;;13.20;10.65;;;6.90;99.90;;;;;;6125227;23;20326;-86
2021/12/27 00:44:23;;;;;;;15.13;10.27;;;6.90;99.90;;;;;;6125576;23;20009;-86
2021/12/27 00:46:49;;;;;;;12.27;9.95;;;6.90;99.90;;;;;;6125079;23;20077;-86
2021/12/27 00:49:15;;;;;;;13.90;10.60;;;6.90;99.90;;;;;;6124976;23;20002;-86
2021/12/27 00:51:40;;;;;;;12.38;10.13;;;6.90;99.90;;;;;;6125336;23;20301;-86
2021/12/27 00:54:06;;;;;;;11.73;9.75;;;7.00;99.90;;;;;;6125066;23;20006;-86
2021/12/27 00:56:32;;;;;;;12.82;10.85;;;6.80;99.90;;;;;;6124937;23;20018;-86
2021/12/27 00:58:57;;;;;;;13.60;10.45;;;7.00;99.90;;;;;;6125226;23;20138;-86
2021/12/27 01:01:23;;;;;;;12.77;9.93;;;6.70;99.90;;;;;;6124799;23;20001;-86
2021/12/27 01:03:49;;;;;;;13.70;10.10;;;6.60;99.90;;;;;;6125053;23;20013;-86
2021/12/27 01:06:14;;;;;;;12.48;9.48;;;6.70;99.90;;;;;;6125805;23;20381;-86
2021/12/27 01:08:40;;;;;;;11.27;9.50;;;6.80;99.90;;;;;;6124505;23;20002;-86
2021/12/27 01:11:26;;;;;;;13.00;9.77;;;6.80;99.90;;;;;;6098786;23;20002;-86
2021/12/27 01:16:48;;;;;;;13.20;11.65;;;6.50;99.90;;;;;;6064187;23;19999;-86
2021/12/27 01:19:14;;;;;;;14.73;11.70;;;6.20;99.90;;;;;;6064594;23;20341;-86
2021/12/27 01:21:39;;;;;;;15.48;11.07;;;6.20;99.90;;;;;;6064423;23;20445;-86
2021/12/27 01:24:06;;;;;;;14.38;11.85;;;6.20;99.90;;;;;;6063874;23;20011;-86
2021/12/27 01:26:32;;;;;;;15.93;12.18;;;6.20;99.90;;;;;;6064594;23;20453;-86
2021/12/27 01:29:00;;;;;;;15.23;11.80;;;6.10;99.90;;;;;;6064038;23;20011;-86
2021/12/27 01:31:26;;;;;;;13.57;10.75;;;6.30;99.90;;;;;;6063998;23;20034;-86
2021/12/27 01:33:52;;;;;;;12.88;10.15;;;6.50;99.90;;;;;;6064308;23;20011;-86
2021/12/27 01:36:17;;;;;;;13.00;9.52;;;6.30;99.90;;;;;;6063801;23;20417;-86
2021/12/27 01:38:43;;;;;;;11.63;9.82;;;6.40;99.90;;;;;;6063865;23;20018;-86
2021/12/27 01:41:14;;;;;;;14.20;10.52;;;6.60;99.90;;;;;;6064032;23;20030;-86
2021/12/27 01:43:41;;;;;;;12.57;9.88;;;6.40;99.90;;;;;;6063936;23;20030;-86
2021/12/27 01:46:13;;;;;;;12.48;10.35;;;6.50;99.90;;;;;;6064516;23;20007;-85
2021/12/27 01:48:43;;;;;;;12.25;9.63;;;6.40;99.90;;;;;;6063940;23;20011;-85
2021/12/27 01:51:12;;;;;;;10.35;8.88;;;6.70;99.90;;;;;;6039691;23;20505;-86
2021/12/27 01:53:42;;;;;;;10.32;8.43;;;6.70;99.90;;;;;;6105413;23;20345;-86
2021/12/27 01:56:09;;;;;;;11.70;9.27;;;6.50;99.90;;;;;;6124623;23;20444;-86
2021/12/27 01:58:35;;;;;;;12.02;10.05;;;6.60;99.90;;;;;;6124322;23;20014;-86
2021/12/27 02:01:04;;;;;;;12.35;9.65;;;6.50;99.90;;;;;;6124672;23;20035;-86
2021/12/27 02:03:32;;;;;;;12.02;10.30;;;6.50;99.90;;;;;;6124697;23;20006;-86
2021/12/27 02:05:58;;;;;;;11.95;9.63;;;6.50;99.90;;;;;;6124199;23;20006;-86
2021/12/27 02:08:24;;;;;;;11.95;9.88;;;6.50;99.90;;;;;;6125101;23;20033;-86
2021/12/27 02:10:50;;;;;;;11.10;8.80;;;6.40;99.90;;;;;;6124664;23;20002;-86
2021/12/27 02:13:17;;;;;;;12.30;9.73;;;6.60;99.90;;;;;;6124651;23;20006;-86
2021/12/27 02:15:43;;;;;;;10.65;8.82;;;6.60;99.90;;;;;;6124595;23;20009;-86
2021/12/27 02:18:10;;;;;;;11.45;9.13;;;6.60;99.90;;;;;;6124408;23;20468;-86
2021/12/27 02:20:38;;;;;;;8.95;8.02;;;6.70;99.90;;;;;;6123873;23;20017;-86
2021/12/27 02:23:10;;;;;;;9.40;7.55;;;7.00;99.90;;;;;;6124742;23;19998;-86
2021/12/27 02:25:36;;;;;;;9.85;8.02;;;6.80;99.90;;;;;;6126513;23;20025;-86
2021/12/27 02:28:06;;;;;;;9.98;7.90;;;6.80;99.90;;;;;;6126605;23;20006;-86
2021/12/27 02:30:32;;;;;;;9.55;7.80;;;6.80;99.90;;;;;;6126628;23;20381;-87
2021/12/27 02:33:05;;;;;;;9.60;7.40;;;6.90;99.90;;;;;;6126588;23;20001;-86
2021/12/27 02:35:42;;;;;;;9.10;6.55;;;7.00;99.90;;;;;;6126352;23;20009;-86
2021/12/27 02:38:12;;;;;;;8.55;6.60;;;7.00;99.90;;;;;;6126089;23;20511;-86
2021/12/27 02:40:38;;;;;;;7.85;6.60;;;7.00;99.90;;;;;;6126706;23;20002;-86
2021/12/27 02:43:08;;;;;;;7.88;6.40;;;7.40;99.90;;;;;;6126384;23;20310;-86
2021/12/27 02:45:37;;;;;;;7.93;6.95;;;7.30;99.90;;;;;;6126462;23;20010;-86
2021/12/27 02:48:04;;;;;;;8.05;6.72;;;7.00;99.90;;;;;;6126258;23;20002;-85
2021/12/27 02:50:31;;;;;;;8.20;6.68;;;7.00;99.90;;;;;;6125629;23;20017;-86
2021/12/27 02:52:57;;;;;;;7.88;6.57;;;7.50;99.90;;;;;;6126416;23;20006;-85
2021/12/27 02:55:24;;;;;;;9.10;6.82;;;7.10;99.90;;;;;;6126170;23;20429;-86
2021/12/27 02:57:50;;;;;;;7.68;6.10;;;7.30;99.90;;;;;;6126413;23;20381;-86
2021/12/27 03:00:19;;;;;;;7.93;6.28;;;7.10;99.90;;;;;;6126194;23;20028;-86
2021/12/27 03:02:47;;;;;;;7.80;6.35;;;7.10;99.90;;;;;;6126038;23;20002;-86
2021/12/27 03:05:16;;;;;;;8.43;6.80;;;7.40;99.90;;;;;;6125779;23;20088;-86
2021/12/27 03:07:43;;;;;;;10.10;6.93;;;7.10;99.90;;;;;;6126661;23;20005;-86
2021/12/27 03:10:11;;;;;;;8.88;6.57;;;7.10;99.90;;;;;;6125953;23;20057;-85
2021/12/27 03:12:38;;;;;;;8.90;6.85;;;7.10;99.90;;;;;;6125890;23;20002;-86
2021/12/27 03:15:08;;;;;;;9.32;6.72;;;7.10;99.90;;;;;;6126449;23;20344;-86
2021/12/27 03:17:36;;;;;;;8.57;6.75;;;7.10;99.90;;;;;;6126061;23;19998;-86
2021/12/27 03:20:07;;;;;;;9.93;7.50;;;7.30;99.90;;;;;;6125807;23;20029;-86
2021/12/27 03:22:34;;;;;;;10.02;7.30;;;7.10;99.90;;;;;;6126019;23;20009;-86
2021/12/27 03:25:00;;;;;;;7.88;6.60;;;7.10;99.90;;;;;;6126158;23;20101;-86
2021/12/27 03:27:26;;;;;;;8.00;6.25;;;7.10;99.90;;;;;;6126274;23;19998;-86
2021/12/27 03:29:52;;;;;;;8.70;6.78;;;7.30;99.90;;;;;;6126130;23;20006;-86
2021/12/27 03:32:20;;;;;;;8.43;6.72;;;7.50;99.90;;;;;;6125518;23;20381;-86
2021/12/27 03:34:54;;;;;;;8.07;7.03;;;7.10;99.90;;;;;;6126105;23;20006;-85
2021/12/27 03:37:21;;;;;;;7.68;6.18;;;7.10;99.90;;;;;;6125700;23;20006;-86
2021/12/27 03:39:47;;;;;;;7.38;6.30;;;7.10;99.90;;;;;;6126055;23;20018;-86
2021/12/27 03:42:13;;;;;;;7.30;6.43;;;7.10;99.90;;;;;;6126072;23;20045;-86
2021/12/27 03:44:38;;;;;;;7.18;6.25;;;7.10;99.90;;;;;;6125647;23;20073;-86
2021/12/27 03:47:04;;;;;;;6.72;6.03;;;7.10;99.90;;;;;;6125777;23;20006;-86
2021/12/27 03:49:29;;;;;;;9.30;6.07;;;7.10;99.90;;;;;;6125456;23;20002;-86
2021/12/27 03:51:55;;;;;;;7.82;6.43;;;7.10;99.90;;;;;;6125569;23;20085;-86
2021/12/27 03:54:21;;;;;;;7.72;6.05;;;7.10;99.90;;;;;;6125711;23;20006;-86
2021/12/27 03:56:46;;;;;;;10.48;6.57;;;7.10;99.90;;;;;;6099469;23;20006;-86
2021/12/27 03:59:24;;;;;;;8.63;6.75;;;7.10;99.90;;;;;;6125913;23;20100;-86
2021/12/27 04:01:50;;;;;;;7.93;6.97;;;7.10;99.90;;;;;;6125247;23;20022;-86
2021/12/27 04:04:16;;;;;;;8.57;6.95;;;7.40;99.90;;;;;;6125406;23;20002;-85
2021/12/27 04:06:42;;;;;;;8.30;6.57;;;7.10;99.90;;;;;;6125582;23;20010;-86
2021/12/27 04:09:07;;;;;;;7.80;6.55;;;7.00;99.90;;;;;;6125459;23;20029;-86
2021/12/27 04:11:33;;;;;;;7.97;6.65;;;7.20;99.90;;;;;;6126021;23;20002;-85
2021/12/27 04:13:59;;;;;;;8.82;6.95;;;6.80;99.90;;;;;;6125533;23;20002;-86
2021/12/27 04:16:25;;;;;;;9.23;6.75;;;6.90;99.90;;;;;;6099001;23;20007;-86
2021/12/27 04:18:51;;;;;;;9.93;7.60;;;6.90;99.90;;;;;;6125504;23;20444;-85
2021/12/27 04:21:17;;;;;;;9.38;7.30;;;7.00;99.90;;;;;;6125299;23;19998;-86
2021/12/27 04:23:42;;;;;;;7.95;6.80;;;7.00;99.90;;;;;;6125391;23;20029;-86
2021/12/27 04:26:08;;;;;;;9.90;7.40;;;7.00;99.90;;;;;;6125179;23;20500;-85
2021/12/27 04:28:33;;;;;;;8.90;6.75;;;7.00;99.90;;;;;;6125651;23;20084;-86
2021/12/27 04:30:59;;;;;;;9.32;7.75;;;7.00;99.90;;;;;;6125141;23;20081;-85
2021/12/27 04:33:25;;;;;;;10.02;7.68;;;6.90;99.90;;;;;;6125086;23;20065;-86
2021/12/27 04:35:51;;;;;;;10.27;7.80;;;7.00;99.90;;;;;;6125593;23;19997;-86
2021/12/27 04:38:16;;;;;;;10.02;7.60;;;7.00;99.90;;;;;;6124748;23;20089;-85
2021/12/27 04:40:44;;;;;;;9.48;6.93;;;7.00;99.90;;;;;;6124999;23;20005;-86
2021/12/27 04:43:16;;;;;;;9.10;6.65;;;6.90;99.90;;;;;;6125183;23;20013;-86
2021/12/27 04:45:43;;;;;;;8.85;7.10;;;7.30;99.90;;;;;;6124827;23;20016;-86
2021/12/27 04:48:09;;;;;;;7.82;6.78;;;7.00;99.90;;;;;;6124889;23;20390;-85
2021/12/27 04:50:35;;;;;;;9.00;6.90;;;6.90;99.90;;;;;;6125274;23;20065;-86
2021/12/27 04:53:01;;;;;;;9.63;6.63;;;7.00;99.90;;;;;;6124601;23;20013;-86
2021/12/27 04:55:27;;;;;;;7.78;6.57;;;7.00;99.90;;;;;;6099471;23;20002;-85
2021/12/27 04:57:53;;;;;;;10.07;7.63;;;6.90;99.90;;;;;;6125032;23;20009;-86
2021/12/27 05:00:19;;;;;;;8.68;6.90;;;6.90;99.90;;;;;;6124960;23;20009;-86
2021/12/27 05:02:45;;;;;;;10.15;7.20;;;6.90;99.90;;;;;;6125001;23;19998;-85
2021/12/27 05:05:11;;;;;;;9.25;7.53;;;7.00;99.90;;;;;;6125039;23;20010;-86
2021/12/27 05:07:37;;;;;;;8.82;7.25;;;6.90;99.90;;;;;;6125467;23;20006;-86
2021/12/27 05:10:04;;;;;;;10.27;7.50;;;6.90;99.90;;;;;;6125022;23;20002;-86
2021/12/27 05:12:29;;;;;;;9.23;7.18;;;6.90;99.90;;;;;;6124888;23;20010;-86
2021/12/27 05:14:55;;;;;;;10.55;6.88;;;6.90;99.90;;;;;;6125115;23;20009;-85
2021/12/27 05:17:20;;;;;;;9.10;7.07;;;6.80;99.90;;;;;;6124928;23;20370;-85
2021/12/27 05:19:46;;;;;;;9.75;7.32;;;6.80;99.90;;;;;;6099157;23;20017;-86
2021/12/27 05:22:12;;;;;;;9.52;7.22;;;6.90;99.90;;;;;;6125055;23;20036;-86
2021/12/27 05:24:37;;;;;;;8.60;6.97;;;6.90;99.90;;;;;;6125022;23;20010;-85
2021/12/27 05:27:03;;;;;;;10.75;7.30;;;6.80;99.90;;;;;;6125033;23;20002;-85
2021/12/27 05:29:29;;;;;;;9.73;6.95;;;6.80;99.90;;;;;;6124565;23;20002;-85
2021/12/27 05:31:58;;;;;;;9.73;6.75;;;6.80;99.90;;;;;;6124705;23;20599;-85
2021/12/27 05:34:24;;;;;;;9.60;7.40;;;6.80;99.90;;;;;;6125158;23;20013;-86
2021/12/27 05:36:49;;;;;;;10.15;7.65;;;6.80;99.90;;;;;;6098651;23;20400;-86
2021/12/27 05:39:19;;;;;;;8.75;6.78;;;6.80;99.90;;;;;;6124613;23;20017;-86
2021/12/27 05:41:45;;;;;;;10.30;7.50;;;7.10;99.90;;;;;;6124742;23;20002;-86
2021/12/27 05:44:11;;;;;;;9.80;6.75;;;6.70;99.90;;;;;;6124366;23;20012;-86
2021/12/27 05:46:36;;;;;;;10.82;7.20;;;6.70;99.90;;;;;;6099005;23;20085;-86
2021/12/27 05:49:02;;;;;;;10.55;7.07;;;6.70;99.90;;;;;;6124659;23;20006;-86
2021/12/27 05:51:28;;;;;;;9.13;6.90;;;6.70;99.90;;;;;;6124046;23;20014;-86
2021/12/27 05:53:54;;;;;;;10.50;6.90;;;6.70;99.90;;;;;;6099122;23;20048;-86
2021/12/27 05:56:19;;;;;;;8.60;6.95;;;6.90;99.90;;;;;;6124874;23;20073;-86
2021/12/27 05:58:45;;;;;;;9.38;6.55;;;7.10;99.90;;;;;;6124612;23;20416;-85
2021/12/27 06:01:11;;;;;;;9.57;7.03;;;6.70;99.90;;;;;;6126945;23;20017;-86
2021/12/27 06:03:37;;;;;;;8.60;6.88;;;6.90;99.90;;;;;;6126924;23;20369;-86
2021/12/27 06:06:03;;;;;;;8.13;6.63;;;7.20;99.90;;;;;;6126733;23;20009;-86
2021/12/27 06:08:28;;;;;;;10.65;6.82;;;6.80;99.90;;;;;;6126866;23;20002;-86
2021/12/27 06:10:54;;;;;;;7.90;6.80;;;6.80;99.90;;;;;;6127157;23;20073;-85
2021/12/27 06:13:20;;;;;;;10.88;7.15;;;6.80;99.90;;;;;;6126162;23;20392;-86
2021/12/27 06:15:45;;;;;;;8.68;7.45;;;6.80;99.90;;;;;;6126917;23;20016;-86
2021/12/27 06:18:11;;;;;;;12.02;7.53;;;7.00;99.90;;;;;;6127086;23;20080;-86
2021/12/27 06:20:37;;;;;;;10.50;7.05;;;6.80;99.90;;;;;;6126392;23;20027;-86
2021/12/27 06:23:02;;;;;;;9.93;7.18;;;6.80;99.90;;;;;;6126537;23;20006;-86
2021/12/27 06:25:28;;;;;;;10.35;6.93;;;7.00;99.90;;;;;;6126631;23;20056;-86
2021/12/27 06:27:54;;;;;;;8.95;6.97;;;6.90;99.90;;;;;;6125820;23;20117;-85
2021/12/27 06:30:21;;;;;;;9.82;7.38;;;7.20;99.90;;;;;;6126504;23;20399;-85
2021/12/27 06:32:47;;;;;;;11.65;8.15;;;6.80;99.90;;;;;;6127079;23;20012;-85
2021/12/27 06:35:15;;;;;;;11.27;8.55;;;6.80;99.90;;;;;;6126218;23;20459;-86
2021/12/27 06:37:42;;;;;;;11.00;8.10;;;6.70;99.90;;;;;;6126277;23;19998;-86
2021/12/27 06:40:10;;;;;;;10.13;8.07;;;6.70;99.90;;;;;;6126669;23;20041;-85
2021/12/27 06:42:36;;;;;;;11.88;8.85;;;6.70;99.90;;;;;;6125772;23;20038;-86
2021/12/27 06:45:02;;;;;;;12.02;8.55;;;6.60;99.90;;;;;;6126530;23;20010;-86
2021/12/27 06:47:27;;;;;;;12.38;9.10;;;6.60;99.90;;;;;;6126058;23;20369;-85
2021/12/27 06:49:54;;;;;;;12.55;8.90;;;6.50;99.90;;;;;;6125958;23;20018;-85
2021/12/27 06:52:19;;;;;;;11.15;8.57;;;6.60;99.90;;;;;;6126485;23;20341;-86
2021/12/27 06:54:45;;;;;;;13.18;9.00;;;6.60;99.90;;;;;;6126191;23;20010;-86
2021/12/27 06:57:12;;;;;;;11.35;8.73;;;6.70;99.90;;;;;;6125947;23;20002;-86
2021/12/27 06:59:38;;;;;;;12.00;9.18;;;6.70;99.90;;;;;;6126139;23;20041;-86
2021/12/27 07:02:05;;;;;;;12.63;9.23;;;6.70;99.90;;;;;;6100385;23;20477;-86
2021/12/27 07:04:31;;;;;;;11.98;8.95;;;6.70;99.90;;;;;;6126336;23;20075;-86
2021/12/27 07:06:57;;;;;;;12.57;9.23;;;6.70;99.90;;;;;;6101007;23;20182;-85
2021/12/27 07:09:23;;;;;;;15.05;9.98;;;6.80;99.90;;;;;;6125936;23;20368;-86
2021/12/27 07:11:49;;;;;;;12.48;9.32;;;6.80;99.90;;;;;;6125812;23;20012;-86
2021/12/27 07:14:15;;;;;;;12.43;9.13;;;7.10;99.90;;;;;;6126060;23;20006;-86
2021/12/27 07:16:40;;;;;;;14.18;9.40;;;6.80;99.90;;;;;;6125828;23;20073;-86
2021/12/27 07:19:06;;;;;;;11.65;9.20;;;6.80;99.90;;;;;;6099789;23;20024;-86
2021/12/27 07:21:32;;;;;;;12.10;8.88;;;6.90;99.90;;;;;;6125962;23;20029;-86
2021/12/27 07:23:57;;;;;;;14.07;9.38;;;7.10;99.90;;;;;;6126481;23;20037;-86
2021/12/27 07:26:23;;;;;;;11.80;8.63;;;6.90;99.90;;;;;;6125642;23;20037;-86
2021/12/27 07:28:48;;;;;;;12.93;9.07;;;7.00;99.90;;;;;;6099704;23;20012;-86
2021/12/27 07:31:14;;;;;;;12.07;9.45;;;7.40;99.90;;;;;;6125760;23;20010;-86
2021/12/27 07:33:40;;;;;;;12.27;9.65;;;7.10;99.90;;;;;;6125926;23;19999;-85
2021/12/27 07:36:08;;;;;;;11.27;9.07;;;7.20;99.90;;;;;;6126339;23;20006;-86
2021/12/27 07:38:34;;;;;;;13.57;10.25;;;7.20;99.90;;;;;;6099507;23;20006;-86
2021/12/27 07:41:00;;;;;;;12.75;9.35;;;7.20;99.90;;;;;;6125306;23;20056;-85
2021/12/27 07:43:26;;;;;;;12.57;8.50;;;7.40;99.90;;;;;;6126134;23;20002;-86
2021/12/27 07:45:52;;;;;;;8.60;7.05;;;7.40;99.90;;;;;;6125748;23;20009;-86
2021/12/27 07:48:17;;;;;;;9.13;7.03;;;7.50;99.90;;;;;;6125926;23;20006;-86
2021/12/27 07:50:43;;;;;;;8.40;6.55;;;7.60;99.90;;;;;;6125441;23;20028;-86
2021/12/27 07:53:09;;;;;;;10.52;6.38;;;7.80;99.90;;;;;;6125645;23;20005;-86
2021/12/27 07:55:34;;;;;;;7.10;5.60;;;7.80;99.90;;;;;;6125327;23;20036;-86
2021/12/27 07:58:00;;;;;;;7.43;5.97;;;7.90;99.90;;;;;;6125386;23;20002;-86
2021/12/27 08:00:26;;;;;;;7.75;5.50;;;8.00;99.90;;;;;;6125713;23;20016;-86
2021/12/27 08:02:52;;;;;;;9.18;6.35;;;8.00;99.90;;;;;;6099950;23;20006;-85
2021/12/27 08:05:18;;;;;;;7.28;6.22;;;8.00;99.90;;;;;;6099168;23;20037;-86
2021/12/27 08:07:45;;;;;;;7.32;5.50;;;8.00;99.90;;;;;;6125058;23;20381;-85
2021/12/27 08:10:12;;;;;;;9.40;6.20;;;8.00;99.90;;;;;;6125573;23;20002;-86
2021/12/27 08:12:38;;;;;;;7.85;5.55;;;8.20;99.90;;;;;;6099315;23;20432;-86
2021/12/27 08:15:09;;;;;;;8.95;5.72;;;8.20;99.90;;;;;;6125496;23;19998;-86
2021/12/27 08:17:36;;;;;;;8.95;5.88;;;8.30;99.90;;;;;;6125342;23;20002;-85
2021/12/27 08:20:06;;;;;;;8.38;4.95;;;8.30;99.90;;;;;;6126041;23;20092;-86
2021/12/27 08:22:32;;;;;;;6.22;3.95;;;8.50;99.90;;;;;;6124076;23;20314;-86
2021/12/27 08:24:58;;;;;;;5.90;3.75;;;9.10;99.90;;;;;;6125272;23;20089;-86
2021/12/27 08:27:26;;;;;;;6.07;3.42;;;8.60;99.90;;;;;;6125738;23;20094;-87
2021/12/27 08:29:51;;;;;;;4.85;3.42;;;8.80;99.90;;;;;;6125572;23;20341;-86
2021/12/27 08:32:17;;;;;;;4.68;3.70;;;8.40;99.90;;;;;;6125541;23;20009;-86
2021/12/27 08:34:43;;;;;;;7.32;3.70;;;8.20;99.90;;;;;;6124907;23;20018;-87
2021/12/27 08:37:09;;;;;;;5.88;3.40;;;8.10;99.90;;;;;;6124772;23;20077;-86
2021/12/27 08:39:35;;;;;;;5.13;3.20;;;8.10;99.90;;;;;;6125089;23;20044;-86
2021/12/27 08:42:03;;;;;;;4.50;2.90;;;8.10;1.00;;;;;;6125512;23;20002;-86
2021/12/27 08:44:29;;;;;;;3.97;2.85;;;8.20;1.00;;;;;;6125274;23;20391;-86
2021/12/27 08:46:54;;;;;;;8.82;3.38;;;8.50;99.90;;;;;;6125373;23;20096;-86
2021/12/27 08:49:20;;;;;;;4.15;3.10;;;9.50;99.90;;;;;;6125240;23;20081;-86
2021/12/27 08:51:46;;;;;;;6.68;2.92;;;9.70;99.90;;;;;;6124701;23;20101;-90
2021/12/27 08:54:12;;;;;;;3.60;2.17;;;9.60;99.90;;;;;;6099243;23;20010;-90
2021/12/27 08:56:38;;;;;;;5.30;2.75;;;9.80;99.90;;;;;;6098362;23;20052;-87
2021/12/27 08:59:05;;;;;;;3.90;2.85;;;9.80;99.90;;;;;;6125277;23;20025;-87
2021/12/27 09:01:31;;;;;;;6.32;3.55;;;9.80;99.90;;;;;;6125035;23;20318;-86
2021/12/27 09:03:57;;;;;;;4.47;2.85;;;9.80;99.90;;;;;;6125374;23;20013;-88
2021/12/27 09:06:22;;;;;;;4.55;2.47;;;9.90;99.90;;;;;;6098685;23;20010;-88
2021/12/27 09:08:48;;;;;;;4.47;3.28;;;9.80;99.90;;;;;;6099535;23;20006;-88
2021/12/27 09:11:14;;;;;;;4.93;2.72;;;9.80;99.90;;;;;;6125063;23;20002;-88
2021/12/27 09:13:40;;;;;;;4.57;3.20;;;9.90;99.90;;;;;;6124883;23;20098;-86
2021/12/27 09:16:07;;;;;;;4.25;2.80;;;10.00;99.90;;;;;;6125448;23;20002;-87
2021/12/27 09:18:35;;;;;;;4.85;2.70;;;10.00;99.90;;;;;;6124835;23;20005;-88
2021/12/27 09:21:01;;;;;;;5.07;2.75;;;10.10;99.90;;;;;;6098869;23;20097;-88
2021/12/27 09:23:27;;;;;;;6.65;2.97;;;10.00;99.90;;;;;;6098801;23;20038;-87
2021/12/27 09:25:54;;;;;;;4.72;2.60;;;10.10;99.90;;;;;;6099157;23;20013;-87
2021/12/27 09:28:19;;;;;;;5.40;2.70;;;10.20;99.90;;;;;;6124534;23;20081;-87
2021/12/27 09:30:45;;;;;;;4.82;2.60;;;10.20;99.90;;;;;;6098808;23;20034;-88
2021/12/27 09:33:11;;;;;;;5.15;3.30;;;10.10;99.90;;;;;;6124248;23;20002;-87
2021/12/27 09:35:37;;;;;;;3.28;2.10;;;10.10;99.90;;;;;;6124658;23;20008;-88
2021/12/27 09:38:03;;;;;;;4.55;2.53;;;10.20;99.90;;;;;;6125022;23;20025;-88
2021/12/27 09:40:29;;;;;;;3.50;2.90;;;10.20;99.90;;;;;;6124795;23;20455;-88
2021/12/27 09:42:56;;;;;;;5.78;3.20;;;10.10;99.90;;;;;;6124607;23;20463;-87
2021/12/27 09:45:22;;;;;;;2.75;2.22;;;10.10;99.90;;;;;;6125076;23;20040;-88
2021/12/27 09:47:50;;;;;;;5.93;2.78;;;10.30;99.90;;;;;;6125639;23;19998;-88
2021/12/27 09:50:28;;;;;;;5.47;2.90;;;10.50;99.90;;;;;;6098661;23;20025;-88
2021/12/27 09:52:53;;;;;;;7.72;3.00;;;10.20;99.90;;;;;;6098740;23;20515;-88
2021/12/27 09:55:19;;;;;;;5.38;3.15;;;10.20;99.90;;;;;;6123488;23;20026;-87
2021/12/27 09:57:45;;;;;;;6.10;2.97;;;10.10;99.90;;;;;;6098781;23;20038;-87
2021/12/27 10:00:11;;;;;;;5.10;2.60;;;10.10;99.90;;;;;;6124732;23;20014;-88
2021/12/27 10:02:39;;;;;;;6.13;2.92;;;10.10;99.90;;;;;;6124900;23;20009;-88
2021/12/27 10:05:05;;;;;;;7.78;2.75;;;10.00;99.90;;;;;;6124095;23;20415;-88
2021/12/27 10:07:31;;;;;;;6.15;2.80;;;10.10;99.90;;;;;;6124998;23;19998;-87
2021/12/27 10:09:59;;;;;;;9.23;3.42;;;10.10;99.90;;;;;;6098146;23;20006;-87
2021/12/27 10:12:28;;;;;;;10.35;2.60;;;10.10;99.90;;;;;;6124832;23;20009;-87
2021/12/27 10:15:02;;;;;;;9.40;2.88;;;10.00;99.90;;;;;;6125375;23;20009;-87
2021/12/27 10:17:32;;;;;;;12.65;3.20;;;9.90;99.90;;;;;;6124472;23;20002;-87
2021/12/27 10:20:13;;;;;;;18.30;4.38;;;10.00;99.90;;;;;;6097957;23;20018;-87
2021/12/27 10:22:48;;;;;;;4.85;2.75;;;10.00;99.90;;;;;;6124791;23;20089;-88
2021/12/27 10:25:15;;;;;;;4.55;2.63;;;9.90;99.90;;;;;;6124864;23;20010;-87
2021/12/27 10:27:41;;;;;;;8.55;3.70;;;9.90;99.90;;;;;;6098964;23;20085;-88
2021/12/27 10:30:26;;;;;;;4.93;2.92;;;9.90;99.90;;;;;;6098550;23;20033;-88
2021/12/27 10:33:00;;;;;;;9.30;3.65;;;9.90;99.90;;;;;;6124708;23;20006;-89
2021/12/27 10:35:37;;;;;;;12.40;3.22;;;9.70;99.90;;;;;;6124630;23;20345;-88
2021/12/27 10:38:16;;;;;;;13.15;4.20;;;9.80;99.90;;;;;;6124549;23;20086;-89
2021/12/27 10:41:09;;;;;;;9.93;2.97;;;9.80;99.90;;;;;;6098659;23;20064;-88
2021/12/27 10:43:39;;;;;;;6.18;3.00;;;9.90;99.90;;;;;;6119364;23;20006;-86
2021/12/27 10:46:09;;;;;;;10.32;3.45;;;9.60;99.90;;;;;;6125363;23;20014;-87
2021/12/27 10:48:40;;;;;;;4.60;2.92;;;9.60;99.90;;;;;;6125407;23;20057;-85
2021/12/27 10:51:06;;;;;;;9.57;3.08;;;9.50;99.90;;;;;;6126063;23;20013;-86
2021/12/27 10:53:45;;;;;;;2.22;1.75;;;9.40;99.90;;;;;;6126165;23;20036;-84
2021/12/27 10:56:11;;;;;;;2.45;1.90;;;9.40;99.90;;;;;;6127119;23;20040;-86
2021/12/27 10:58:38;;;;;;;5.10;2.55;;;9.40;99.90;;;;;;6125415;23;20006;-86
2021/12/27 11:01:12;;;;;;;2.17;1.80;;;9.30;99.90;;;;;;6126844;23;20060;-86
2021/12/27 11:03:45;;;;;;;5.90;3.20;;;9.20;99.90;;;;;;6126526;23;20440;-85
2021/12/27 11:06:18;;;;;;;3.83;2.38;;;9.20;99.90;;;;;;6126057;23;20053;-87
2021/12/27 11:08:45;;;;;;;5.15;2.92;;;9.20;99.90;;;;;;6126439;23;20077;-86
2021/12/27 11:11:14;;;;;;;6.35;2.65;;;9.20;99.90;;;;;;6125836;23;20014;-86
2021/12/27 11:13:42;;;;;;;5.95;2.63;;;9.30;99.90;;;;;;6100563;23;20010;-89
2021/12/27 11:16:08;;;;;;;3.60;2.05;;;9.30;99.90;;;;;;6127696;23;20013;-89
2021/12/27 11:18:34;;;;;;;3.90;2.63;;;9.20;99.90;;;;;;6127003;23;20002;-88
2021/12/27 11:21:03;;;;;;;6.78;2.80;;;9.20;99.90;;;;;;6129276;23;20017;-90
2021/12/27 11:23:30;;;;;;;3.65;2.15;;;9.20;99.90;;;;;;6100015;23;20030;-89
2021/12/27 11:26:10;;;;;;;11.88;3.97;;;9.20;99.90;;;;;;6103005;23;20451;-96
2021/12/27 11:28:39;;;;;;;8.57;2.80;;;9.20;99.90;;;;;;6107919;23;20013;-96
2021/12/27 11:31:13;;;;;;;2.75;1.92;;;9.20;99.90;;;;;;6101685;23;20014;-89
2021/12/27 11:34:00;;;;;;;3.15;1.65;;;9.30;99.90;;;;;;6125841;23;20006;-88
2021/12/27 11:36:31;;;;;;;6.03;2.15;;;9.10;99.90;;;;;;6125849;23;20488;-87
2021/12/27 11:39:00;;;;;;;6.32;2.38;;;9.10;99.90;;;;;;6125784;23;20010;-89
2021/12/27 11:41:33;;;;;;;6.93;2.08;;;9.20;99.90;;;;;;6126091;23;20105;-90
2021/12/27 11:44:05;;;;;;;4.78;1.88;;;9.10;99.90;;;;;;6126639;23;20002;-88
2021/12/27 11:46:51;;;;;;;1.33;1.23;;;8.90;99.90;;;;;;6125159;23;20012;-87
2021/12/27 11:49:59;;;;;;;4.63;2.40;;;8.90;99.90;;;;;;6125239;23;20002;-87
2021/12/27 11:52:35;;;;;;;6.35;2.50;;;8.90;99.90;;;;;;6120603;23;20046;-88
2021/12/27 11:55:07;;;;;;;5.55;2.72;;;9.00;99.90;;;;;;6126073;23;20029;-87
2021/12/27 11:57:42;;;;;;;1.95;1.55;;;8.90;99.90;;;;;;6125817;23;20072;-84
2021/12/27 12:00:17;;;;;;;3.55;1.80;;;9.00;99.90;;;;;;6125100;23;20050;-81
2021/12/27 12:02:45;;;;;;;2.00;1.10;;;9.00;99.90;;;;;;6125579;23;20006;-82
2021/12/27 12:05:30;;;;;;;2.75;1.50;;;8.90;99.90;;;;;;6125037;23;20018;-83
2021/12/27 12:07:56;;;;;;;4.85;1.67;;;8.90;99.90;;;;;;6124550;23;20002;-86
2021/12/27 12:10:22;;;;;;;4.35;1.55;;;9.10;99.90;;;;;;6125924;23;20069;-83
2021/12/27 12:13:26;;;;;;;1.23;1.00;;;9.10;99.90;;;;;;6125357;23;20002;-86
2021/12/27 12:16:01;;;;;;;1.90;1.63;;;9.10;99.90;;;;;;6125011;23;20009;-85
2021/12/27 12:18:28;;;;;;;3.05;1.60;;;9.30;99.90;;;;;;6124765;23;20009;-83
2021/12/27 12:20:54;;;;;;;1.50;1.20;;;9.40;99.90;;;;;;6125580;23;20014;-83
2021/12/27 12:23:20;;;;;;;1.35;0.80;;;9.30;99.90;;;;;;6125022;23;20033;-83
2021/12/27 12:25:45;;;;;;;1.65;1.25;;;9.40;99.90;;;;;;6124819;23;20013;-83
2021/12/27 12:28:14;;;;;;;1.70;1.50;;;9.50;99.90;;;;;;6125109;23;20002;-84
2021/12/27 12:30:45;;;;;;;1.63;1.52;;;9.60;99.90;;;;;;6124656;23;20010;-83
2021/12/27 12:33:19;;;;;;;2.95;1.50;;;9.70;99.90;;;;;;6124978;23;20002;-83
2021/12/27 12:35:46;;;;;;;1.30;1.13;;;9.70;99.90;;;;;;6125426;23;20010;-83
2021/12/27 12:38:22;;;;;;;1.23;1.10;;;9.80;99.90;;;;;;6125130;23;19998;-83
2021/12/27 12:41:09;;;;;;;2.97;1.48;;;9.70;99.90;;;;;;6124966;23;20010;-83
2021/12/27 12:43:41;;;;;;;2.08;1.50;;;9.80;99.90;;;;;;6124310;23;20013;-83
2021/12/27 12:46:18;;;;;;;1.50;1.40;;;9.90;99.90;;;;;;6125246;23;20006;-83
2021/12/27 12:48:55;;;;;;;1.38;0.90;;;9.80;99.90;;;;;;6124321;23;20075;-83
2021/12/27 12:51:33;;;;;;;1.27;1.17;;;9.70;99.90;;;;;;6124750;23;20010;-83
2021/12/27 12:53:58;;;;;;;2.15;1.20;;;9.70;99.90;;;;;;6124776;23;20373;-83
2021/12/27 12:56:32;;;;;;;1.83;1.20;;;9.80;99.90;;;;;;6125149;23;20084;-85